Terminal Aerodrome Forecast
Issued by NWS Raleigh/Durham, NC

Home | Current Version | Previous Version | Text Only | Print | Product List | Glossary On
Versions: 1 2 3 4 5 6 7 8 9 10 11 12 13 14 15 16 17 18 19 20 21 22 23 24 25 26 27 28 29 30
000
FTUS42 KRAH 070851 AAA
TAFRDU
TAF AMD
KRDU 070851Z 0709/0806 VRB03KT 5SM BR SCT010
      TEMPO 0709/0712 00000KT 2SM BR BKN006
     FM071200 35006KT P6SM SCT250
     FM080200 00000KT P6SM OVC100=

USA.gov is the U.S. government's official web portal to all federal, state and local government web resources and services.